Crystal, New Mexico
Current Conditions -  °F | °C
As of 10:53 AM on Thursday 27 Nov 2014 (Local Time) from KGUP Reporting Station
Clear Clear  
Wind Chill: 45°   Ceiling: Unl
Heat Index: 45°   Visibility: 10mi
Dew Point: 19°   Wind: 0mph
Humidity: 36%   Direction: NA
Pressure: 30.49"   Gusts: NA
Location:  35.8917°N, 108.926°W
Report Text: KGUP 271753Z AUTO 00000KT 10SM CLR 07/M07 A3049 RMK AO2 SLP330 T00721072 10072 21106 58008
Loading
Personal Weather Stations






























Interactive Weather Map New forecast layout! Learn more

10-Day Weather Forecast

Advertisements
Track Severe Weather on mobile